Weather at Pangsuma Airport

Public forecast

Using degrees Celsius for public forecast. Weather courtesy of forecast.io.

Closest aviation weather report (METAR) to Pangsuma Airport

Report is more than 6 hours old.

Closest report is Kapit Airport, 70.5 nm (130.6 km) N. Retrieved 2020/03/21 06:00 UTC (9 months ago):

WBGP 210600Z 04003KT 300V110 9999 SCT016 SCT150 BKN300 33/25 Q//// QFF1011

Closest aviation forecast (TAF) to Pangsuma Airport

Closest forecast is Sibu Airport, 102.9 nm (190.6 km) NNW. Retrieved 2020/12/01 12:00 UTC (5 hours ago):

TAF WBGS 011100Z 0112/0212 VRB03KT 9999 SCT018 TEMPO 0112/0115 4000 TSRA FEW015CB